Time;durP1;ratioP1;P1;durP2;ratioP2;P2;SDS_P1;SDS_P2;PMS_P1;PMS_P2;Temp;Humidity;BMP_temperature;BMP_pressure;BME280_temperature;BME280_humidity;BME280_pressure;Samples;Min_cycle;Max_cycle;Signal;HPM_P1;HPM_P2
2022/06/21 00:00:05;;;;;;;2.13;1.27;;;;;;;;;;5013249;28;20051;-87
2022/06/21 00:02:30;;;;;;;1.50;1.10;;;;;;;;;;5039136;28;20029;-87
2022/06/21 00:04:56;;;;;;;2.05;1.10;;;;;;;;;;5046309;28;20048;-87
2022/06/21 00:07:24;;;;;;;1.23;1.13;;;;;;;;;;5046683;28;20040;-86
2022/06/21 00:09:50;;;;;;;1.80;0.93;;;;;;;;;;5035899;28;20029;-87
2022/06/21 00:12:16;;;;;;;3.88;1.00;;;;;;;;;;5026913;28;20043;-87
2022/06/21 00:14:42;;;;;;;2.22;1.15;;;;;;;;;;5016584;28;20025;-87
2022/06/21 00:17:21;;;;;;;1.20;1.10;;;;;;;;;;5036941;28;20036;-86
2022/06/21 00:19:47;;;;;;;1.40;1.10;;;;;;;;;;5012904;28;20032;-87
2022/06/21 00:22:15;;;;;;;1.17;1.10;;;;;;;;;;5019877;28;20028;-86
2022/06/21 00:25:02;;;;;;;1.42;1.33;;;;;;;;;;5038131;28;20127;-87
2022/06/21 00:27:28;;;;;;;1.67;1.40;;;;;;;;;;5032972;28;20112;-85
2022/06/21 00:29:53;;;;;;;2.38;1.27;;;;;;;;;;5031668;28;20103;-85
2022/06/21 00:32:20;;;;;;;2.95;1.20;;;;;;;;;;5037265;28;20028;-85
2022/06/21 00:34:46;;;;;;;0.90;0.90;;;;;;;;;;5041389;28;20120;-86
2022/06/21 00:37:18;;;;;;;2.10;1.38;;;;;;;;;;5043146;28;20024;-86
2022/06/21 00:39:43;;;;;;;2.58;1.40;;;;;;;;;;5033948;28;20025;-86
2022/06/21 00:42:40;;;;;;;1.20;1.15;;;;;;;;;;5023414;28;20075;-86
2022/06/21 00:49:18;;;;;;;3.92;1.17;;;;;;;;;;4956288;28;20034;-87
2022/06/21 00:51:43;;;;;;;1.33;1.23;;;;;;;;;;5025313;28;20022;-87
2022/06/21 00:54:21;;;;;;;1.42;1.10;;;;;;;;;;5021584;28;20032;-86
2022/06/21 00:56:53;;;;;;;1.35;1.15;;;;;;;;;;5034375;28;20120;-86
2022/06/21 00:59:25;;;;;;;1.58;1.30;;;;;;;;;;5033755;28;20043;-87
2022/06/21 01:02:44;;;;;;;1.70;1.40;;;;;;;;;;5044820;28;20497;-87
2022/06/21 01:05:09;;;;;;;1.13;1.10;;;;;;;;;;4988277;28;20072;-87
2022/06/21 01:07:36;;;;;;;4.25;1.30;;;;;;;;;;5018340;28;20100;-87
2022/06/21 01:10:06;;;;;;;3.10;1.40;;;;;;;;;;5015273;28;20040;-87
2022/06/21 01:13:01;;;;;;;1.33;1.23;;;;;;;;;;5036094;28;20034;-87
2022/06/21 01:15:31;;;;;;;3.28;1.52;;;;;;;;;;5023740;28;20111;-87
2022/06/21 01:21:10;;;;;;;2.75;1.50;;;;;;;;;;5035714;28;20036;-87
2022/06/21 01:23:43;;;;;;;1.10;1.10;;;;;;;;;;5023724;28;20168;-88
2022/06/21 01:26:55;;;;;;;2.25;1.45;;;;;;;;;;5021450;28;20033;-87
2022/06/21 01:29:28;;;;;;;3.20;1.17;;;;;;;;;;5031337;28;20048;-87
2022/06/21 01:31:56;;;;;;;2.33;1.05;;;;;;;;;;5033168;28;20040;-87
2022/06/21 01:37:43;;;;;;;1.60;1.30;;;;;;;;;;5034420;28;20040;-88
2022/06/21 01:40:25;;;;;;;4.10;1.20;;;;;;;;;;5014356;28;20034;-87
2022/06/21 01:42:54;;;;;;;2.30;1.17;;;;;;;;;;5014975;28;20083;-87
2022/06/21 01:45:24;;;;;;;1.52;1.42;;;;;;;;;;5033570;28;20063;-88
2022/06/21 01:48:03;;;;;;;1.55;1.45;;;;;;;;;;5023861;28;20507;-86
2022/06/21 01:50:30;;;;;;;2.10;1.25;;;;;;;;;;5014611;28;20030;-86
2022/06/21 01:52:56;;;;;;;3.88;1.23;;;;;;;;;;5033248;28;20017;-86
2022/06/21 01:55:28;;;;;;;1.60;1.30;;;;;;;;;;5024716;28;20032;-87
2022/06/21 02:05:46;;;;;;;1.30;1.20;;;;;;;;;;5039375;28;20039;-88
2022/06/21 02:15:53;;;;;;;2.13;1.40;;;;;;;;;;5026734;28;20095;-87
2022/06/21 02:25:42;;;;;;;1.35;1.25;;;;;;;;;;4918521;29;20050;-87
2022/06/21 02:28:55;;;;;;;4.38;1.55;;;;;;;;;;4936451;28;20035;-88
2022/06/21 02:31:24;;;;;;;1.65;1.55;;;;;;;;;;4908206;29;20347;-88
2022/06/21 02:33:53;;;;;;;2.25;1.52;;;;;;;;;;4979417;28;20451;-87
2022/06/21 02:36:24;;;;;;;1.30;1.20;;;;;;;;;;4990767;28;20525;-88
2022/06/21 02:38:55;;;;;;;1.25;1.20;;;;;;;;;;5020867;28;20510;-87
2022/06/21 02:41:33;;;;;;;1.85;1.67;;;;;;;;;;5029608;28;20100;-87
2022/06/21 02:44:16;;;;;;;2.67;1.90;;;;;;;;;;5029936;28;20059;-87
2022/06/21 02:46:47;;;;;;;2.95;1.40;;;;;;;;;;5030748;28;20033;-86
2022/06/21 02:49:20;;;;;;;2.17;1.40;;;;;;;;;;5015790;28;20512;-86
2022/06/21 02:51:59;;;;;;;2.25;1.60;;;;;;;;;;5025438;28;20071;-87
2022/06/21 02:54:27;;;;;;;2.55;1.30;;;;;;;;;;5044931;28;20052;-87
2022/06/21 02:57:05;;;;;;;2.28;1.40;;;;;;;;;;5045611;28;20034;-87
2022/06/21 02:59:34;;;;;;;1.60;1.50;;;;;;;;;;5021148;28;20029;-87
2022/06/21 03:02:07;;;;;;;1.48;1.38;;;;;;;;;;5027347;28;20455;-87
2022/06/21 03:04:39;;;;;;;1.58;1.48;;;;;;;;;;5037587;28;20025;-87
2022/06/21 03:07:07;;;;;;;1.13;1.13;;;;;;;;;;5049441;28;20095;-88
2022/06/21 03:09:34;;;;;;;3.42;1.20;;;;;;;;;;5035751;28;20095;-87
2022/06/21 03:12:06;;;;;;;1.38;1.27;;;;;;;;;;5018341;28;20029;-86
2022/06/21 03:14:34;;;;;;;2.88;1.33;;;;;;;;;;5017618;28;20313;-87
2022/06/21 03:17:02;;;;;;;1.40;1.30;;;;;;;;;;5019664;28;20040;-87
2022/06/21 03:19:37;;;;;;;1.90;1.50;;;;;;;;;;5023852;28;20478;-87
2022/06/21 03:22:19;;;;;;;1.42;1.33;;;;;;;;;;5039823;28;20033;-86
2022/06/21 03:24:46;;;;;;;;;;;;;;;;;;5036613;28;20048;-86
2022/06/21 03:27:18;;;;;;;1.70;1.42;;;;;;;;;;5017997;28;19913;-86
2022/06/21 03:29:43;;;;;;;1.27;1.15;;;;;;;;;;5038678;28;20036;-87
2022/06/21 03:32:10;;;;;;;2.60;1.40;;;;;;;;;;5022541;28;20415;-87
2022/06/21 03:34:35;;;;;;;1.80;1.48;;;;;;;;;;5018947;28;20106;-88
2022/06/21 03:37:01;;;;;;;1.67;1.50;;;;;;;;;;5038477;28;20025;-87
2022/06/21 03:42:17;;;;;;;3.17;1.27;;;;;;;;;;5034658;28;20103;-88
2022/06/21 03:44:54;;;;;;;4.13;1.50;;;;;;;;;;5030505;28;20372;-87
2022/06/21 03:47:44;;;;;;;1.80;1.40;;;;;;;;;;5025202;28;20501;-88
2022/06/21 03:50:25;;;;;;;2.47;1.55;;;;;;;;;;5013451;28;20049;-88
2022/06/21 03:53:12;;;;;;;2.47;1.40;;;;;;;;;;5045573;28;20037;-89
2022/06/21 03:55:55;;;;;;;3.42;1.40;;;;;;;;;;5048868;28;20029;-87
2022/06/21 03:58:44;;;;;;;1.50;1.40;;;;;;;;;;5043544;28;20034;-89
2022/06/21 04:01:28;;;;;;;2.85;1.60;;;;;;;;;;5016858;28;20089;-87
2022/06/21 04:03:57;;;;;;;6.38;1.50;;;;;;;;;;5027839;28;20041;-88
2022/06/21 04:06:41;;;;;;;2.17;1.30;;;;;;;;;;5024784;28;20025;-88
2022/06/21 04:09:14;;;;;;;1.50;1.40;;;;;;;;;;5027076;28;20128;-88
2022/06/21 04:11:45;;;;;;;1.20;1.10;;;;;;;;;;5030341;28;20527;-88
2022/06/21 04:14:20;;;;;;;5.63;1.60;;;;;;;;;;5023805;28;20026;-88
2022/06/21 04:16:49;;;;;;;3.53;1.70;;;;;;;;;;5050751;28;20025;-87
2022/06/21 04:19:28;;;;;;;2.38;1.50;;;;;;;;;;5016374;28;20530;-86
2022/06/21 04:22:06;;;;;;;3.25;1.50;;;;;;;;;;5043148;28;20036;-87
2022/06/21 04:24:51;;;;;;;3.30;1.52;;;;;;;;;;5035695;28;20112;-87
2022/06/21 04:27:49;;;;;;;3.38;1.48;;;;;;;;;;5035449;28;20036;-87
2022/06/21 04:30:34;;;;;;;1.65;1.40;;;;;;;;;;4989055;28;20049;-88
2022/06/21 04:33:10;;;;;;;1.85;1.55;;;;;;;;;;5015965;28;20021;-88
2022/06/21 04:36:00;;;;;;;6.95;1.70;;;;;;;;;;5035021;28;20026;-88
2022/06/21 04:38:32;;;;;;;2.28;1.50;;;;;;;;;;5009364;28;20021;-87
2022/06/21 04:41:12;;;;;;;3.15;1.60;;;;;;;;;;5038398;28;20509;-86
2022/06/21 04:43:53;;;;;;;4.28;1.40;;;;;;;;;;5024809;28;20033;-86
2022/06/21 04:46:33;;;;;;;1.93;1.50;;;;;;;;;;5035267;28;20083;-87
2022/06/21 04:49:16;;;;;;;1.52;1.40;;;;;;;;;;5016987;28;20044;-86
2022/06/21 04:51:49;;;;;;;4.18;1.50;;;;;;;;;;5026803;28;20101;-85
2022/06/21 04:54:30;;;;;;;1.73;1.42;;;;;;;;;;5025736;28;20116;-85
2022/06/21 04:57:15;;;;;;;3.63;1.60;;;;;;;;;;5032202;28;20029;-86
2022/06/21 05:00:04;;;;;;;2.78;1.70;;;;;;;;;;5023954;28;20037;-86
2022/06/21 05:02:37;;;;;;;2.22;1.40;;;;;;;;;;5024222;28;20431;-87
2022/06/21 05:05:20;;;;;;;2.85;1.63;;;;;;;;;;5021599;28;20113;-86
2022/06/21 05:07:50;;;;;;;4.85;1.83;;;;;;;;;;5025345;28;20030;-86
2022/06/21 05:10:21;;;;;;;5.65;1.40;;;;;;;;;;5016334;28;20021;-87
2022/06/21 05:12:49;;;;;;;2.58;1.73;;;;;;;;;;5029154;28;20114;-86
2022/06/21 05:15:18;;;;;;;1.58;1.48;;;;;;;;;;5041168;28;20471;-86
2022/06/21 05:18:08;;;;;;;5.30;1.92;;;;;;;;;;5021439;28;20037;-86
2022/06/21 05:20:36;;;;;;;2.15;1.88;;;;;;;;;;5031241;28;20044;-86
2022/06/21 05:23:05;;;;;;;3.45;2.10;;;;;;;;;;5039756;28;20033;-85
2022/06/21 05:25:35;;;;;;;2.78;1.60;;;;;;;;;;5044273;28;20090;-86
2022/06/21 05:28:21;;;;;;;1.35;1.25;;;;;;;;;;5020217;28;20029;-87
2022/06/21 05:30:51;;;;;;;4.75;1.50;;;;;;;;;;5031482;28;20032;-85
2022/06/21 05:33:26;;;;;;;3.10;1.58;;;;;;;;;;5041233;28;20100;-85
2022/06/21 05:35:52;;;;;;;2.53;1.67;;;;;;;;;;5039792;28;20718;-84
2022/06/21 05:38:22;;;;;;;5.43;1.60;;;;;;;;;;5046674;28;20136;-84
2022/06/21 05:40:50;;;;;;;3.33;1.63;;;;;;;;;;5011796;28;20025;-85
2022/06/21 05:43:28;;;;;;;2.80;1.60;;;;;;;;;;5026644;28;20029;-86
2022/06/21 05:45:58;;;;;;;1.92;1.38;;;;;;;;;;5025277;28;20105;-85
2022/06/21 05:48:26;;;;;;;1.83;1.60;;;;;;;;;;5021277;28;20144;-86
2022/06/21 05:50:51;;;;;;;5.93;1.55;;;;;;;;;;5044288;28;20021;-85
2022/06/21 05:53:31;;;;;;;2.05;1.58;;;;;;;;;;5043701;28;20028;-84
2022/06/21 05:56:00;;;;;;;3.97;1.55;;;;;;;;;;5020526;28;20021;-85
2022/06/21 05:58:32;;;;;;;3.67;1.63;;;;;;;;;;5031392;28;20071;-85
2022/06/21 06:01:09;;;;;;;;;;;;;;;;;;5037617;28;20056;-85
2022/06/21 06:03:49;;;;;;;3.25;1.60;;;;;;;;;;5035268;28;20326;-86
2022/06/21 06:06:18;;;;;;;4.05;1.80;;;;;;;;;;5054229;28;20040;-86
2022/06/21 06:08:49;;;;;;;1.48;1.38;;;;;;;;;;5019928;28;20025;-85
2022/06/21 06:11:23;;;;;;;2.25;1.30;;;;;;;;;;5022553;28;20033;-84
2022/06/21 06:13:50;;;;;;;2.50;1.65;;;;;;;;;;5025308;28;20052;-85
2022/06/21 06:16:35;;;;;;;3.28;1.60;;;;;;;;;;5024105;28;20041;-86
2022/06/21 06:19:09;;;;;;;3.70;1.40;;;;;;;;;;5025000;28;20035;-85
2022/06/21 06:21:44;;;;;;;6.30;1.45;;;;;;;;;;5034480;28;20096;-85
2022/06/21 06:24:17;;;;;;;2.33;1.52;;;;;;;;;;5038264;28;20045;-84
2022/06/21 06:26:45;;;;;;;2.95;1.50;;;;;;;;;;5035918;28;20013;-87
2022/06/21 06:29:33;;;;;;;2.88;1.55;;;;;;;;;;5029896;28;20034;-85
2022/06/21 06:32:27;;;;;;;3.00;1.30;;;;;;;;;;5041655;28;20033;-86
2022/06/21 06:34:54;;;;;;;7.25;1.70;;;;;;;;;;5026547;28;20026;-87
2022/06/21 06:37:19;;;;;;;3.90;1.35;;;;;;;;;;5040618;28;20453;-86
2022/06/21 06:39:45;;;;;;;2.50;1.40;;;;;;;;;;5042488;28;20391;-87
2022/06/21 06:42:24;;;;;;;3.63;1.33;;;;;;;;;;5033308;28;20036;-88
2022/06/21 06:45:15;;;;;;;2.42;1.60;;;;;;;;;;5016591;28;20022;-88
2022/06/21 06:47:51;;;;;;;2.47;1.42;;;;;;;;;;5019456;28;20079;-87
2022/06/21 06:50:22;;;;;;;1.30;1.20;;;;;;;;;;5014410;28;20340;-86
2022/06/21 06:52:56;;;;;;;2.53;1.30;;;;;;;;;;5036637;28;20116;-88
2022/06/21 06:55:30;;;;;;;4.10;1.55;;;;;;;;;;5031148;28;20534;-87
2022/06/21 06:58:04;;;;;;;1.60;1.50;;;;;;;;;;5031717;28;20028;-89
2022/06/21 07:00:51;;;;;;;1.05;1.02;;;;;;;;;;5015063;28;20064;-87
2022/06/21 07:03:19;;;;;;;2.10;1.40;;;;;;;;;;5022834;28;20028;-87
2022/06/21 07:06:00;;;;;;;2.08;1.25;;;;;;;;;;5031406;28;20021;-87
2022/06/21 07:08:37;;;;;;;1.73;1.60;;;;;;;;;;5023052;28;20499;-87
2022/06/21 07:11:18;;;;;;;2.25;1.50;;;;;;;;;;5023973;28;20024;-87
2022/06/21 07:13:43;;;;;;;4.63;1.35;;;;;;;;;;5022604;28;20017;-87
2022/06/21 07:16:16;;;;;;;2.72;1.23;;;;;;;;;;5033416;28;20032;-88
2022/06/21 07:18:52;;;;;;;4.70;1.45;;;;;;;;;;5014378;28;20114;-87
2022/06/21 07:21:25;;;;;;;4.40;1.52;;;;;;;;;;5038700;28;20032;-88
2022/06/21 07:23:52;;;;;;;2.97;1.30;;;;;;;;;;5033470;28;20034;-85
2022/06/21 07:26:27;;;;;;;3.95;1.30;;;;;;;;;;5042229;28;20022;-87
2022/06/21 07:29:13;;;;;;;3.50;1.38;;;;;;;;;;5025095;28;20139;-87
2022/06/21 07:31:45;;;;;;;1.60;1.17;;;;;;;;;;5038802;28;20091;-88
2022/06/21 07:34:24;;;;;;;1.75;1.40;;;;;;;;;;5034428;28;20029;-88
2022/06/21 07:37:12;;;;;;;3.90;1.63;;;;;;;;;;5011666;28;20031;-87
2022/06/21 07:39:49;;;;;;;2.00;1.35;;;;;;;;;;5032498;28;20052;-87
2022/06/21 07:42:22;;;;;;;3.47;1.63;;;;;;;;;;5034108;28;20442;-87
2022/06/21 07:45:22;;;;;;;5.82;1.42;;;;;;;;;;5052925;28;20105;-87
2022/06/21 07:47:50;;;;;;;2.90;1.38;;;;;;;;;;5035211;28;20173;-86
2022/06/21 07:50:32;;;;;;;1.92;1.05;;;;;;;;;;5039653;28;20109;-86
2022/06/21 07:53:17;;;;;;;;;;;;;;;;;;5039622;28;20029;-86
2022/06/21 07:55:53;;;;;;;2.22;1.50;;;;;;;;;;5035890;28;19909;-89
2022/06/21 07:58:31;;;;;;;3.35;1.48;;;;;;;;;;5027654;28;20526;-88
2022/06/21 08:07:06;;;;;;;1.55;1.45;;;;;;;;;;5065111;28;20032;-86
2022/06/21 08:09:41;;;;;;;2.90;1.50;;;;;;;;;;5051217;28;20032;-86
2022/06/21 08:12:10;;;;;;;2.45;1.20;;;;;;;;;;5030847;28;20084;-87
2022/06/21 08:14:36;;;;;;;3.00;1.20;;;;;;;;;;5026479;28;20091;-86
2022/06/21 08:17:15;;;;;;;2.78;1.38;;;;;;;;;;5032451;28;20033;-87
2022/06/21 08:20:05;;;;;;;4.10;1.63;;;;;;;;;;5046815;28;20045;-86
2022/06/21 08:22:40;;;;;;;1.85;1.38;;;;;;;;;;5045242;28;20060;-86
2022/06/21 08:25:15;;;;;;;1.95;1.35;;;;;;;;;;5041430;28;20089;-86
2022/06/21 08:28:05;;;;;;;1.13;1.02;;;;;;;;;;5058520;28;20098;-86
2022/06/21 08:30:46;;;;;;;2.95;1.42;;;;;;;;;;5044580;28;20049;-87
2022/06/21 08:33:19;;;;;;;3.38;1.42;;;;;;;;;;5060671;28;20101;-86
2022/06/21 08:35:52;;;;;;;4.10;1.50;;;;;;;;;;5038181;28;20029;-86
2022/06/21 08:38:24;;;;;;;5.10;1.85;;;;;;;;;;5053726;28;20036;-86
2022/06/21 08:41:00;;;;;;;;;;;;;;;;;;5024917;28;20031;-85
2022/06/21 08:43:57;;;;;;;5.05;1.70;;;;;;;;;;5038062;28;19909;-84
2022/06/21 08:46:25;;;;;;;3.42;1.10;;;;;;;;;;5029947;28;20029;-86
2022/06/21 08:49:20;;;;;;;1.48;1.13;;;;;;;;;;5026940;28;20120;-86
2022/06/21 08:52:05;;;;;;;2.97;1.38;;;;;;;;;;5047378;28;20029;-86
2022/06/21 08:54:30;;;;;;;2.15;1.38;;;;;;;;;;5021789;28;20025;-86
2022/06/21 08:57:11;;;;;;;2.38;1.58;;;;;;;;;;5045314;28;20356;-88
2022/06/21 08:59:50;;;;;;;2.92;1.40;;;;;;;;;;5020058;28;20040;-88
2022/06/21 09:02:36;;;;;;;2.30;1.27;;;;;;;;;;5035964;28;20105;-87
2022/06/21 09:05:24;;;;;;;2.35;1.13;;;;;;;;;;5016671;28;20112;-85
2022/06/21 09:08:22;;;;;;;4.07;1.88;;;;;;;;;;5005520;28;20013;-85
2022/06/21 09:11:03;;;;;;;2.38;1.48;;;;;;;;;;4961890;28;20039;-85
2022/06/21 09:14:00;;;;;;;1.83;1.55;;;;;;;;;;5040266;28;20481;-87
2022/06/21 09:16:44;;;;;;;2.45;1.52;;;;;;;;;;5033506;28;20029;-87
2022/06/21 09:19:39;;;;;;;3.60;1.80;;;;;;;;;;5028113;28;20029;-87
2022/06/21 09:22:31;;;;;;;4.28;1.60;;;;;;;;;;5037261;28;20051;-87
2022/06/21 09:25:22;;;;;;;7.50;1.40;;;;;;;;;;5039066;28;20013;-87
2022/06/21 09:27:51;;;;;;;7.55;1.88;;;;;;;;;;5063225;28;20021;-87
2022/06/21 09:30:23;;;;;;;6.53;1.55;;;;;;;;;;5043500;28;20025;-86
2022/06/21 09:32:59;;;;;;;2.95;1.55;;;;;;;;;;5045009;28;20063;-85
2022/06/21 09:35:37;;;;;;;3.13;1.58;;;;;;;;;;5067641;28;20037;-88
2022/06/21 09:38:41;;;;;;;2.55;1.73;;;;;;;;;;5048267;28;20155;-87
2022/06/21 09:41:18;;;;;;;2.38;1.48;;;;;;;;;;5029654;28;20036;-85
2022/06/21 09:44:11;;;;;;;3.05;1.80;;;;;;;;;;5019757;28;20135;-85
2022/06/21 09:46:50;;;;;;;3.10;1.70;;;;;;;;;;5039112;28;20131;-86
2022/06/21 09:49:30;;;;;;;1.30;1.20;;;;;;;;;;5038812;28;20053;-85
2022/06/21 09:52:04;;;;;;;3.90;1.75;;;;;;;;;;5042722;28;20083;-86
2022/06/21 09:54:35;;;;;;;3.80;1.70;;;;;;;;;;5041845;28;20043;-86
2022/06/21 09:57:29;;;;;;;4.18;1.50;;;;;;;;;;5025182;28;20029;-86
2022/06/21 10:00:02;;;;;;;1.50;1.40;;;;;;;;;;5035863;28;20022;-85
2022/06/21 10:03:04;;;;;;;1.40;1.27;;;;;;;;;;5020485;28;20463;-86
2022/06/21 10:05:37;;;;;;;3.88;1.50;;;;;;;;;;5040716;28;20029;-86
2022/06/21 10:08:17;;;;;;;4.00;1.50;;;;;;;;;;5047864;28;20039;-87
2022/06/21 10:11:13;;;;;;;2.13;1.70;;;;;;;;;;5041650;28;20054;-85
2022/06/21 10:14:00;;;;;;;6.03;1.65;;;;;;;;;;5042467;28;20064;-85
2022/06/21 10:17:02;;;;;;;2.15;1.23;;;;;;;;;;5041943;28;20082;-86
2022/06/21 10:19:37;;;;;;;2.13;1.35;;;;;;;;;;5020045;28;20112;-85
2022/06/21 10:22:12;;;;;;;2.83;1.40;;;;;;;;;;5046930;28;20029;-86
2022/06/21 10:24:48;;;;;;;4.82;1.85;;;;;;;;;;5042137;28;20087;-86
2022/06/21 10:27:29;;;;;;;3.15;1.67;;;;;;;;;;5038295;28;20017;-86
2022/06/21 10:30:21;;;;;;;2.43;1.70;;;;;;;;;;5020532;28;20092;-85
2022/06/21 10:32:58;;;;;;;3.70;2.00;;;;;;;;;;5039214;28;20018;-87
2022/06/21 10:35:26;;;;;;;2.95;1.48;;;;;;;;;;5044644;28;20029;-87
2022/06/21 10:38:24;;;;;;;1.50;1.40;;;;;;;;;;5043544;28;20033;-87
2022/06/21 10:41:24;;;;;;;2.28;1.52;;;;;;;;;;5027746;28;20059;-87
2022/06/21 10:44:11;;;;;;;2.65;1.70;;;;;;;;;;5033292;28;20040;-84
2022/06/21 10:46:49;;;;;;;2.10;1.90;;;;;;;;;;5032231;28;20025;-88
2022/06/21 10:49:43;;;;;;;2.45;1.60;;;;;;;;;;5036617;28;20171;-88
2022/06/21 10:52:31;;;;;;;2.20;1.77;;;;;;;;;;5029451;28;20074;-86
2022/06/21 10:55:02;;;;;;;3.53;1.90;;;;;;;;;;5017569;28;20512;-87
2022/06/21 10:57:39;;;;;;;5.78;1.80;;;;;;;;;;5032204;28;20071;-86
2022/06/21 11:03:18;;;;;;;5.28;1.80;;;;;;;;;;5039031;28;20048;-86
2022/06/21 11:06:10;;;;;;;2.42;1.75;;;;;;;;;;5037918;28;20540;-86
2022/06/21 11:09:06;;;;;;;3.13;1.77;;;;;;;;;;5040040;28;20103;-86
2022/06/21 11:11:40;;;;;;;3.55;1.90;;;;;;;;;;5044364;28;20029;-86
2022/06/21 11:14:08;;;;;;;1.95;1.80;;;;;;;;;;5033810;28;20036;-86
2022/06/21 11:17:09;;;;;;;5.45;2.25;;;;;;;;;;5050904;28;20021;-86
2022/06/21 11:19:58;;;;;;;2.35;1.85;;;;;;;;;;5019403;28;20045;-86
2022/06/21 11:22:37;;;;;;;4.72;1.70;;;;;;;;;;5031242;28;20021;-87
2022/06/21 11:25:11;;;;;;;2.58;1.80;;;;;;;;;;5032369;28;20124;-86
2022/06/21 11:27:46;;;;;;;3.10;1.80;;;;;;;;;;5032548;28;20090;-85
2022/06/21 11:30:47;;;;;;;2.75;1.67;;;;;;;;;;5019529;28;20045;-86
2022/06/21 11:33:30;;;;;;;3.95;1.67;;;;;;;;;;5029662;28;20462;-86
2022/06/21 11:36:11;;;;;;;3.90;2.05;;;;;;;;;;5039011;28;20092;-86
2022/06/21 11:39:14;;;;;;;2.08;1.70;;;;;;;;;;5044648;28;20036;-87
2022/06/21 11:42:24;;;;;;;6.13;2.00;;;;;;;;;;5041923;28;20059;-86
2022/06/21 11:44:58;;;;;;;6.10;1.98;;;;;;;;;;4956315;28;20094;-86
2022/06/21 11:48:01;;;;;;;2.10;1.90;;;;;;;;;;5035125;28;20068;-86
2022/06/21 11:50:52;;;;;;;5.50;2.15;;;;;;;;;;5038925;28;20100;-86
2022/06/21 11:53:55;;;;;;;3.47;1.70;;;;;;;;;;5031633;28;20064;-84
2022/06/21 11:57:03;;;;;;;3.47;2.10;;;;;;;;;;5052428;22;20029;-84
2022/06/21 11:59:38;;;;;;;4.88;1.65;;;;;;;;;;5003190;28;20084;-83
2022/06/21 12:02:35;;;;;;;3.08;1.95;;;;;;;;;;5008076;28;20024;-84
2022/06/21 12:05:28;;;;;;;3.30;1.77;;;;;;;;;;5003001;28;20025;-84
2022/06/21 12:12:06;;;;;;;3.17;2.03;;;;;;;;;;5011143;28;20053;-83
2022/06/21 12:18:52;;;;;;;3.10;2.10;;;;;;;;;;4957794;29;20058;-84
2022/06/21 12:28:46;;;;;;;2.57;1.90;;;;;;;;;;4863893;29;20789;-84
2022/06/21 12:31:29;;;;;;;7.97;2.13;;;;;;;;;;4868134;29;20041;-83
2022/06/21 12:37:54;;;;;;;2.25;2.03;;;;;;;;;;4863054;29;20052;-84
2022/06/21 12:40:32;;;;;;;2.50;1.80;;;;;;;;;;4897758;28;20032;-83
2022/06/21 12:43:17;;;;;;;6.55;2.35;;;;;;;;;;4955509;28;20019;-83
2022/06/21 12:46:15;;;;;;;3.85;2.05;;;;;;;;;;5001296;28;20559;-83
2022/06/21 12:49:10;;;;;;;6.32;2.45;;;;;;;;;;5003542;28;20069;-83
2022/06/21 12:51:51;;;;;;;4.47;2.05;;;;;;;;;;4986800;28;20176;-83
2022/06/21 12:54:59;;;;;;;2.20;2.00;;;;;;;;;;4988986;28;20025;-83
2022/06/21 12:57:36;;;;;;;3.92;2.22;;;;;;;;;;5001095;28;20026;-83
2022/06/21 13:00:04;;;;;;;3.67;2.30;;;;;;;;;;5003848;28;20592;-82
2022/06/21 13:02:38;;;;;;;6.70;1.95;;;;;;;;;;5003404;28;20089;-82
2022/06/21 13:05:25;;;;;;;6.40;2.45;;;;;;;;;;5011908;28;20025;-83
2022/06/21 13:08:22;;;;;;;3.08;2.00;;;;;;;;;;5002623;28;20044;-82
2022/06/21 13:11:15;;;;;;;2.58;2.22;;;;;;;;;;5009803;28;20013;-83
2022/06/21 13:14:16;;;;;;;3.17;2.20;;;;;;;;;;5015430;28;20042;-84
2022/06/21 13:16:59;;;;;;;3.78;2.10;;;;;;;;;;4987230;28;20040;-84
2022/06/21 13:19:32;;;;;;;4.95;2.15;;;;;;;;;;5002154;28;20028;-83
2022/06/21 13:22:20;;;;;;;3.05;2.38;;;;;;;;;;5003716;28;20029;-83
2022/06/21 13:24:57;;;;;;;4.18;2.00;;;;;;;;;;5004892;28;20121;-84
2022/06/21 13:27:37;;;;;;;3.03;2.50;;;;;;;;;;5004445;28;20030;-83
2022/06/21 13:30:12;;;;;;;6.22;2.28;;;;;;;;;;5012417;28;20184;-85
2022/06/21 13:32:54;;;;;;;3.13;2.10;;;;;;;;;;5013531;28;20489;-84
2022/06/21 13:35:25;;;;;;;3.30;2.35;;;;;;;;;;5017480;28;20033;-84
2022/06/21 13:38:07;;;;;;;4.07;2.45;;;;;;;;;;5006533;28;20701;-84
2022/06/21 13:40:48;;;;;;;4.22;2.10;;;;;;;;;;5001265;28;20030;-85
2022/06/21 13:43:35;;;;;;;6.05;2.50;;;;;;;;;;5018758;28;20038;-85
2022/06/21 13:46:24;;;;;;;2.67;2.42;;;;;;;;;;4999012;28;20036;-84
2022/06/21 13:49:33;;;;;;;3.55;2.38;;;;;;;;;;5032146;28;20042;-85
2022/06/21 13:53:06;;;;;;;;;;;;;;;;;;;;;
2022/06/21 13:56:13;;;;;;;5.00;2.55;;;;;;;;;;4946192;28;20058;-85
2022/06/21 13:59:02;;;;;;;3.60;2.67;;;;;;;;;;5000045;28;20037;-86
2022/06/21 14:05:23;;;;;;;4.07;2.50;;;;;;;;;;5057556;28;20040;-85
2022/06/21 14:08:32;;;;;;;4.20;2.60;;;;;;;;;;5039767;28;20045;-85
2022/06/21 14:11:46;;;;;;;4.90;2.55;;;;;;;;;;5051190;28;20069;-84
2022/06/21 14:14:55;;;;;;;7.47;2.53;;;;;;;;;;5056521;28;20044;-85
2022/06/21 14:17:49;;;;;;;5.10;2.65;;;;;;;;;;5014115;28;20013;-84
2022/06/21 14:20:57;;;;;;;6.70;2.70;;;;;;;;;;5016688;28;20034;-85
2022/06/21 14:23:40;;;;;;;4.05;2.35;;;;;;;;;;4999289;28;20049;-84
2022/06/21 14:26:15;;;;;;;4.72;2.75;;;;;;;;;;5019958;28;20126;-85
2022/06/21 14:28:55;;;;;;;3.55;2.63;;;;;;;;;;5029413;28;20037;-86
2022/06/21 14:31:25;;;;;;;4.15;2.63;;;;;;;;;;5009766;28;20139;-85
2022/06/21 14:33:58;;;;;;;4.13;2.67;;;;;;;;;;5034173;28;20029;-85
2022/06/21 14:36:32;;;;;;;3.47;2.40;;;;;;;;;;5027904;28;20022;-84
2022/06/21 14:39:41;;;;;;;3.65;2.67;;;;;;;;;;5010601;28;20097;-85
2022/06/21 14:42:38;;;;;;;5.57;2.45;;;;;;;;;;5051524;22;20041;-83
2022/06/21 14:45:26;;;;;;;6.15;2.85;;;;;;;;;;5050097;28;20433;-81
2022/06/21 14:48:39;;;;;;;4.78;2.70;;;;;;;;;;5036081;28;20039;-83
2022/06/21 14:51:21;;;;;;;5.40;2.65;;;;;;;;;;5018278;28;20478;-82
2022/06/21 14:54:21;;;;;;;9.63;3.00;;;;;;;;;;5023806;28;20049;-82
2022/06/21 14:57:21;;;;;;;3.08;2.10;;;;;;;;;;5046438;28;20025;-83
2022/06/21 15:00:19;;;;;;;6.13;2.38;;;;;;;;;;5036906;28;20036;-82
2022/06/21 15:03:32;;;;;;;4.32;2.60;;;;;;;;;;5043334;28;20033;-81
2022/06/21 15:06:09;;;;;;;3.80;2.55;;;;;;;;;;4978179;28;20360;-83
2022/06/21 15:08:48;;;;;;;3.50;2.38;;;;;;;;;;5051757;28;20104;-84
2022/06/21 15:11:53;;;;;;;5.90;2.50;;;;;;;;;;5047336;28;20029;-85
2022/06/21 15:14:29;;;;;;;7.40;2.80;;;;;;;;;;5041230;28;20026;-83
2022/06/21 15:17:31;;;;;;;3.50;2.88;;;;;;;;;;5036250;28;20379;-82
2022/06/21 15:20:15;;;;;;;5.63;2.72;;;;;;;;;;5032345;28;20041;-84
2022/06/21 15:22:58;;;;;;;4.28;2.70;;;;;;;;;;5045053;28;20025;-84
2022/06/21 15:25:30;;;;;;;5.75;2.85;;;;;;;;;;5037049;28;20557;-85
2022/06/21 15:28:04;;;;;;;4.82;2.88;;;;;;;;;;5036705;28;20056;-84
2022/06/21 15:30:37;;;;;;;5.75;2.70;;;;;;;;;;5037108;28;20029;-84
2022/06/21 15:33:05;;;;;;;4.47;2.63;;;;;;;;;;5049204;28;20087;-83
2022/06/21 15:35:49;;;;;;;4.07;2.70;;;;;;;;;;5045964;28;20033;-83
2022/06/21 15:38:18;;;;;;;3.63;2.72;;;;;;;;;;5034375;28;20029;-83
2022/06/21 15:40:52;;;;;;;6.65;3.00;;;;;;;;;;5029535;28;20021;-83
2022/06/21 15:43:37;;;;;;;5.82;3.05;;;;;;;;;;5041344;28;20033;-82
2022/06/21 15:46:13;;;;;;;6.13;3.00;;;;;;;;;;5037302;28;20034;-83
2022/06/21 15:51:48;;;;;;;6.35;3.08;;;;;;;;;;5029151;28;20060;-83
2022/06/21 15:54:43;;;;;;;5.03;2.95;;;;;;;;;;5032935;28;20116;-82
2022/06/21 15:57:27;;;;;;;3.58;2.72;;;;;;;;;;5034096;28;20030;-84
2022/06/21 16:00:01;;;;;;;5.75;2.45;;;;;;;;;;5031555;28;20126;-83
2022/06/21 16:02:29;;;;;;;4.82;2.72;;;;;;;;;;5042958;28;20013;-84
2022/06/21 16:05:07;;;;;;;4.03;2.88;;;;;;;;;;5028547;28;20030;-84
2022/06/21 16:07:43;;;;;;;4.95;2.90;;;;;;;;;;5039755;28;20029;-83
2022/06/21 16:10:17;;;;;;;5.18;2.47;;;;;;;;;;5039112;28;20060;-85
2022/06/21 16:12:48;;;;;;;10.07;2.95;;;;;;;;;;5040906;28;20151;-84
2022/06/21 16:15:30;;;;;;;5.97;2.45;;;;;;;;;;5045319;28;20040;-84
2022/06/21 16:18:05;;;;;;;4.68;2.70;;;;;;;;;;5024586;28;20103;-82
2022/06/21 16:20:38;;;;;;;7.82;2.97;;;;;;;;;;5031485;28;20048;-83
2022/06/21 16:23:04;;;;;;;7.22;2.90;;;;;;;;;;5024186;28;20029;-83
2022/06/21 16:25:33;;;;;;;6.15;3.20;;;;;;;;;;5037903;28;20025;-83
2022/06/21 16:28:05;;;;;;;2.92;2.63;;;;;;;;;;5038462;28;20550;-84
2022/06/21 16:30:42;;;;;;;7.20;2.95;;;;;;;;;;5038481;28;20037;-83
2022/06/21 16:33:22;;;;;;;4.13;2.80;;;;;;;;;;5055743;28;20025;-84
2022/06/21 16:36:00;;;;;;;7.40;2.60;;;;;;;;;;5052421;28;21338;-87
2022/06/21 16:38:39;;;;;;;5.90;3.40;;;;;;;;;;5029917;28;20029;-87
2022/06/21 16:44:23;;;;;;;3.50;2.75;;;;;;;;;;5047042;28;20036;-84
2022/06/21 16:46:54;;;;;;;6.50;2.72;;;;;;;;;;5016191;28;20147;-84
2022/06/21 16:53:12;;;;;;;;;;;;;;;;;;5049614;28;20071;-83
2022/06/21 16:59:22;;;;;;;5.72;3.03;;;;;;;;;;4926079;29;20055;-85
2022/06/21 17:02:34;;;;;;;4.68;3.08;;;;;;;;;;5000952;28;20403;-83
2022/06/21 17:05:08;;;;;;;6.95;2.70;;;;;;;;;;4983269;28;20042;-86
2022/06/21 17:07:33;;;;;;;5.88;3.03;;;;;;;;;;5043674;28;20036;-84
2022/06/21 17:10:03;;;;;;;5.75;2.80;;;;;;;;;;5058252;28;20108;-83
2022/06/21 17:12:41;;;;;;;3.08;2.50;;;;;;;;;;5033962;28;20025;-83
2022/06/21 17:15:13;;;;;;;6.63;3.38;;;;;;;;;;5043143;28;20475;-85
2022/06/21 17:18:27;;;;;;;10.90;3.20;;;;;;;;;;5033862;28;20029;-84
2022/06/21 17:21:09;;;;;;;7.72;2.80;;;;;;;;;;4965294;28;20074;-84